Time;durP1;ratioP1;P1;durP2;ratioP2;P2;SDS_P1;SDS_P2;PMS_P1;PMS_P2;Temp;Humidity;BMP_temperature;BMP_pressure;BME280_temperature;BME280_humidity;BME280_pressure;Samples;Min_cycle;Max_cycle;Signal;HPM_P1;HPM_P2
2022/10/15 00:01:36;;;;;;;7.63;6.25;;;;;;;14.28;96.73;97523.69;5029840;28;20033;-90
2022/10/15 00:04:04;;;;;;;9.77;5.95;;;;;;;14.40;96.28;97513.88;5029786;28;20038;-90
2022/10/15 00:06:33;;;;;;;8.07;5.72;;;;;;;14.48;95.83;97510.88;5028756;28;20056;-92
2022/10/15 00:08:59;;;;;;;11.38;6.00;;;;;;;14.37;95.87;97501.16;5030639;28;20552;-92
2022/10/15 00:11:27;;;;;;;8.18;5.65;;;;;;;14.24;96.11;97496.19;5030579;28;20045;-91
2022/10/15 00:14:01;;;;;;;7.35;6.15;;;;;;;14.16;96.53;97482.34;5006388;28;20121;-90
2022/10/15 00:16:39;;;;;;;8.15;6.18;;;;;;;14.28;97.49;97502.59;5044461;28;20124;-90
2022/10/15 00:19:05;;;;;;;9.32;6.45;;;;;;;14.18;97.59;97498.72;5021555;28;20418;-90
2022/10/15 00:21:35;;;;;;;7.80;5.85;;;;;;;14.17;97.42;97491.84;5055975;28;20025;-91
2022/10/15 00:24:09;;;;;;;7.38;5.65;;;;;;;14.11;97.10;97486.72;5012399;28;20041;-90
2022/10/15 00:26:34;;;;;;;7.78;5.85;;;;;;;14.24;97.18;97502.25;5044702;28;20044;-90
2022/10/15 00:29:05;;;;;;;7.90;5.80;;;;;;;14.22;96.67;97471.91;5029450;28;20033;-90
2022/10/15 00:31:35;;;;;;;7.47;5.75;;;;;;;14.38;96.43;97486.91;5029036;28;20060;-89
2022/10/15 00:34:01;;;;;;;8.63;5.38;;;;;;;14.33;96.43;97479.72;5022920;28;20084;-91
2022/10/15 00:36:32;;;;;;;7.78;5.93;;;;;;;14.32;96.27;97479.97;5029250;28;20474;-90
2022/10/15 00:39:01;;;;;;;6.85;5.43;;;;;;;14.37;96.67;97482.69;5028272;28;20057;-90
2022/10/15 00:41:47;;;;;;;7.93;5.60;;;;;;;14.25;96.53;97471.41;5029422;28;20112;-92
2022/10/15 00:44:27;;;;;;;6.28;5.13;;;;;;;14.40;96.47;97483.03;5030348;28;20395;-90
2022/10/15 00:47:08;;;;;;;6.10;4.80;;;;;;;14.39;96.39;97467.41;5044183;28;20037;-93
2022/10/15 00:49:43;;;;;;;7.15;4.97;;;;;;;14.32;96.27;97450.94;5033075;28;20371;-89
2022/10/15 00:52:18;;;;;;;5.88;4.85;;;;;;;14.39;96.69;97456.84;5033610;28;20504;-89
2022/10/15 00:54:53;;;;;;;5.82;4.75;;;;;;;14.24;96.13;97448.72;5029937;28;20052;-90
2022/10/15 00:57:23;;;;;;;6.72;4.78;;;;;;;14.24;96.83;97454.78;5033332;28;20433;-89
2022/10/15 00:59:55;;;;;;;7.53;4.90;;;;;;;14.23;96.56;97453.19;5031889;28;20052;-90
2022/10/15 01:02:23;;;;;;;5.97;5.05;;;;;;;14.20;96.57;97433.34;5032188;28;20087;-90
2022/10/15 01:04:50;;;;;;;7.75;5.43;;;;;;;14.16;96.82;97440.16;5028544;28;20367;-91
2022/10/15 01:07:18;;;;;;;9.13;5.20;;;;;;;14.24;96.89;97438.16;5012517;28;20398;-90
2022/10/15 01:09:49;;;;;;;5.90;4.70;;;;;;;14.26;97.25;97452.69;5028358;28;20030;-91
2022/10/15 01:12:39;;;;;;;10.18;5.38;;;;;;;14.17;97.49;97433.84;5031461;28;20077;-91
2022/10/15 01:15:55;;;;;;;6.70;4.77;;;;;;;14.31;97.23;97447.50;5027010;28;20041;-89
2022/10/15 01:18:36;;;;;;;5.47;4.10;;;;;;;14.22;97.24;97432.34;5031311;28;20029;-90
2022/10/15 01:21:15;;;;;;;6.90;4.43;;;;;;;14.41;96.98;97454.81;5030842;28;20025;-90
2022/10/15 01:24:21;;;;;;;7.57;4.65;;;;;;;14.18;96.83;97421.44;5022108;28;20037;-91
2022/10/15 01:27:33;;;;;;;7.50;4.40;;;;;;;14.33;97.08;97436.72;5062335;28;20060;-91
2022/10/15 01:30:46;;;;;;;8.88;4.45;;;;;;;14.30;97.33;97437.22;5041051;28;20040;-90
2022/10/15 01:33:35;;;;;;;6.07;4.70;;;;;;;14.28;97.30;97420.84;5016230;28;20115;-91
2022/10/15 01:36:36;;;;;;;7.18;4.45;;;;;;;14.29;97.59;97430.34;5032567;28;20053;-90
2022/10/15 01:39:17;;;;;;;5.80;4.35;;;;;;;14.33;97.48;97434.88;5019765;28;20124;-90
2022/10/15 01:41:57;;;;;;;9.25;4.90;;;;;;;14.21;97.69;97418.31;5032616;28;20041;-90
2022/10/15 01:44:55;;;;;;;6.72;4.25;;;;;;;14.34;97.45;97427.78;5031419;28;20762;-90
2022/10/15 01:47:47;;;;;;;6.40;4.18;;;;;;;14.36;97.55;97423.06;5026017;28;20426;-90
2022/10/15 01:50:21;;;;;;;6.53;4.13;;;;;;;14.30;97.25;97405.56;5027962;28;20080;-90
2022/10/15 01:52:50;;;;;;;5.72;4.15;;;;;;;14.17;97.53;97391.66;5030781;28;20444;-91
2022/10/15 01:55:25;;;;;;;5.93;4.10;;;;;;;14.25;97.78;97403.63;5029931;28;20057;-90
2022/10/15 01:58:01;;;;;;;7.97;5.07;;;;;;;14.31;97.76;97412.41;5025280;28;20045;-92
2022/10/15 02:00:27;;;;;;;6.38;3.95;;;;;;;14.18;98.12;97398.50;5030393;28;20041;-89
2022/10/15 02:03:00;;;;;;;7.68;4.80;;;;;;;14.09;98.29;97394.69;5024031;28;20037;-90
2022/10/15 02:06:01;;;;;;;4.97;3.95;;;;;;;14.14;97.93;97394.75;5012081;28;20099;-92
2022/10/15 02:08:44;;;;;;;6.30;4.18;;;;;;;14.27;98.58;97409.44;5011956;28;20465;-89
2022/10/15 02:11:17;;;;;;;6.43;4.15;;;;;;;14.16;98.85;97392.69;5026147;28;20090;-89
2022/10/15 02:14:15;;;;;;;5.28;3.95;;;;;;;14.10;98.93;97379.66;5022506;28;20068;-90
2022/10/15 02:16:58;;;;;;;4.68;3.53;;;;;;;14.21;98.95;97397.22;5031884;28;20542;-90
2022/10/15 02:19:40;;;;;;;4.88;3.92;;;;;;;14.20;98.62;97391.16;5046612;28;20498;-90
2022/10/15 02:22:33;;;;;;;4.78;3.53;;;;;;;14.28;98.61;97397.88;5063172;28;20028;-88
2022/10/15 02:25:18;;;;;;;4.35;3.28;;;;;;;14.25;98.46;97381.72;5029891;28;20592;-90
2022/10/15 02:27:48;;;;;;;7.25;3.90;;;;;;;14.30;98.19;97385.25;5031150;28;20517;-89
2022/10/15 02:30:17;;;;;;;4.68;3.63;;;;;;;14.27;97.89;97371.72;5031279;28;20030;-89
2022/10/15 02:32:53;;;;;;;5.55;3.83;;;;;;;14.34;97.58;97377.66;5018291;28;20402;-91
2022/10/15 02:35:22;;;;;;;5.28;4.10;;;;;;;14.34;97.74;97372.38;5030035;28;20025;-89
2022/10/15 02:38:03;;;;;;;4.15;3.60;;;;;;;14.32;98.00;97377.88;5030727;28;20061;-91
2022/10/15 02:40:36;;;;;;;5.75;4.10;;;;;;;14.29;98.32;97375.75;5017216;28;20029;-90
2022/10/15 02:43:11;;;;;;;4.78;3.33;;;;;;;14.30;98.00;97363.34;5056339;28;20436;-94
2022/10/15 02:45:45;;;;;;;4.05;3.30;;;;;;;14.38;98.23;97376.91;5029674;28;20048;-90
2022/10/15 02:48:23;;;;;;;;;;;;;;;;;;;;;
2022/10/15 02:50:49;;;;;;;6.82;3.35;;;;;;;14.23;98.59;97354.81;5030940;28;20037;-89
2022/10/15 02:53:15;;;;;;;6.28;3.45;;;;;;;14.31;98.38;97365.75;5030407;28;20402;-90
2022/10/15 02:55:40;;;;;;;4.80;3.83;;;;;;;14.27;98.46;97350.63;5045726;28;20029;-90
2022/10/15 02:58:16;;;;;;;5.65;3.35;;;;;;;14.31;98.36;97354.41;5030503;28;20735;-90
2022/10/15 03:00:41;;;;;;;4.32;2.97;;;;;;;14.23;98.11;97341.63;5029307;28;20033;-90
2022/10/15 03:03:10;;;;;;;3.85;3.45;;;;;;;14.31;98.05;97354.41;5030340;28;20036;-89
2022/10/15 03:05:40;;;;;;;4.53;3.17;;;;;;;14.23;98.95;97352.16;5040617;28;20099;-91
2022/10/15 03:08:09;;;;;;;7.07;3.35;;;;;;;14.20;98.90;97356.88;5028770;28;20041;-90
2022/10/15 03:10:52;;;;;;;5.40;2.80;;;;;;;14.13;98.76;97335.13;5029293;28;20191;-89
2022/10/15 03:13:17;;;;;;;5.38;3.03;;;;;;;14.18;98.33;97340.50;5012673;28;20145;-90
2022/10/15 03:15:45;;;;;;;4.55;3.20;;;;;;;14.20;98.54;97343.69;5018160;28;20034;-92
2022/10/15 03:18:13;;;;;;;3.33;3.00;;;;;;;14.08;98.72;97329.78;5030263;28;20088;-89
2022/10/15 03:20:51;;;;;;;;;;;;;;;;;;;;;
2022/10/15 03:23:17;;;;;;;4.35;3.42;;;;;;;14.14;98.63;97339.38;5052014;28;20037;-89
2022/10/15 03:25:48;;;;;;;4.15;3.15;;;;;;;14.03;98.89;97328.91;5029054;28;20040;-90
2022/10/15 03:28:25;;;;;;;5.13;3.50;;;;;;;14.06;99.37;97331.88;5029487;28;20030;-93
2022/10/15 03:30:53;;;;;;;4.28;3.20;;;;;;;14.15;99.17;97335.72;5030546;28;20112;-93
2022/10/15 03:33:21;;;;;;;3.95;2.90;;;;;;;14.08;98.93;97329.78;5030746;28;20029;-89
2022/10/15 03:35:49;;;;;;;3.05;2.58;;;;;;;14.15;98.80;97333.09;5030110;28;20453;-90
2022/10/15 03:38:25;;;;;;;3.47;2.80;;;;;;;14.26;99.00;97347.19;5029378;28;20034;-92
2022/10/15 03:40:56;;;;;;;4.15;2.50;;;;;;;14.11;98.98;97326.69;5029667;28;20079;-91
2022/10/15 03:43:37;;;;;;;4.43;2.80;;;;;;;14.15;98.75;97329.63;5013485;28;20033;-91
2022/10/15 03:46:06;;;;;;;4.05;2.50;;;;;;;14.11;99.38;97329.31;5028093;28;20036;-89
2022/10/15 03:48:53;;;;;;;2.50;2.30;;;;;;;14.11;99.61;97339.06;5050310;28;20395;-89
2022/10/15 03:51:18;;;;;;;3.28;2.17;;;;;;;14.17;99.65;97346.81;5029037;28;20030;-90
2022/10/15 03:53:52;;;;;;;2.58;2.20;;;;;;;14.17;99.55;97331.00;5029027;28;20508;-92
2022/10/15 03:56:20;;;;;;;2.38;2.10;;;;;;;14.24;99.50;97351.91;5012402;28;20034;-91
2022/10/15 03:58:45;;;;;;;4.20;1.85;;;;;;;14.23;99.58;97352.16;5022295;28;20032;-92
2022/10/15 04:01:15;;;;;;;4.55;2.00;;;;;;;14.25;99.40;97334.25;5056434;28;20030;-91
2022/10/15 04:03:50;;;;;;;2.88;2.28;;;;;;;14.18;99.31;97337.84;5030586;28;20037;-90
2022/10/15 04:06:19;;;;;;;3.03;2.00;;;;;;;14.23;99.46;97341.63;5032097;28;20029;-92
2022/10/15 04:08:48;;;;;;;2.33;1.90;;;;;;;14.17;99.70;97340.75;5028927;28;20108;-92
2022/10/15 04:11:16;;;;;;;2.63;2.05;;;;;;;14.17;99.63;97331.00;5028866;28;20041;-91
2022/10/15 04:13:50;;;;;;;1.77;1.65;;;;;;;14.31;99.28;97354.41;5028932;28;20124;-92
2022/10/15 04:16:25;;;;;;;2.17;1.88;;;;;;;14.30;99.56;97352.81;5017413;28;20038;-92
2022/10/15 04:19:01;;;;;;;;;;;;;;;;;;;;;
2022/10/15 04:21:31;;;;;;;2.65;1.90;;;;;;;14.30;99.15;97342.25;5024166;28;20022;-89
2022/10/15 04:24:07;;;;;;;4.90;1.80;;;;;;;14.22;98.89;97343.47;5033891;28;20068;-90
2022/10/15 04:29:37;;;;;;;2.70;1.70;;;;;;;14.32;99.52;97363.91;5028016;28;20064;-90
2022/10/15 04:32:03;;;;;;;2.22;1.77;;;;;;;14.24;99.10;97349.28;5033442;28;20721;-91
2022/10/15 04:34:36;;;;;;;2.00;1.63;;;;;;;14.20;98.93;97341.03;5033920;28;20037;-90
2022/10/15 04:37:01;;;;;;;3.05;1.88;;;;;;;14.29;99.15;97351.22;5033976;28;20087;-92
2022/10/15 04:39:29;;;;;;;3.25;1.90;;;;;;;14.32;98.73;97350.72;5032485;28;20030;-89
2022/10/15 04:42:02;;;;;;;2.00;1.90;;;;;;;14.28;99.21;97346.97;5033516;28;20068;-92
2022/10/15 04:44:31;;;;;;;4.15;1.92;;;;;;;14.28;99.47;97346.97;5032256;28;20083;-91
2022/10/15 04:46:57;;;;;;;2.45;1.75;;;;;;;14.33;99.54;97361.00;5030335;28;20501;-89
2022/10/15 04:49:33;;;;;;;2.53;1.70;;;;;;;14.25;99.52;97350.88;5031286;28;20060;-87
2022/10/15 04:52:04;;;;;;;3.58;1.90;;;;;;;14.31;99.42;97359.66;5032492;28;20072;-88
2022/10/15 04:54:34;;;;;;;2.40;1.52;;;;;;;14.19;99.60;97350.00;5060531;28;20038;-87
2022/10/15 04:57:12;;;;;;;5.63;1.90;;;;;;;14.24;100.00;97349.28;5053236;28;20033;-88
2022/10/15 04:59:41;;;;;;;3.22;1.85;;;;;;;14.35;100.00;97366.06;5032796;28;20044;-89
2022/10/15 05:02:06;;;;;;;1.80;1.58;;;;;;;14.22;100.00;97340.03;5053055;28;20025;-88
2022/10/15 05:04:35;;;;;;;2.90;1.92;;;;;;;14.22;99.93;97340.81;5050939;28;20045;-87
2022/10/15 05:07:12;;;;;;;1.90;1.70;;;;;;;14.20;99.91;97341.03;5053016;28;20021;-87
2022/10/15 05:09:45;;;;;;;3.72;1.80;;;;;;;14.30;99.84;97358.06;5030024;28;20056;-88
2022/10/15 05:12:24;;;;;;;4.90;1.83;;;;;;;14.33;99.93;97358.38;5031847;28;20116;-88
2022/10/15 05:14:52;;;;;;;3.03;1.95;;;;;;;14.32;99.81;97358.63;5019114;28;20618;-88
2022/10/15 05:17:25;;;;;;;2.92;1.90;;;;;;;14.29;99.76;97351.22;5009561;28;20508;-89
2022/10/15 05:19:53;;;;;;;2.85;1.80;;;;;;;14.31;100.00;97362.31;5032332;28;20083;-88
2022/10/15 05:22:21;;;;;;;3.33;2.67;;;;;;;14.31;99.90;97357.03;5031490;28;20508;-88
2022/10/15 05:24:54;;;;;;;5.50;4.68;;;;;;;14.28;99.75;97357.53;5031961;28;20030;-88
2022/10/15 05:27:20;;;;;;;4.75;4.25;;;;;;;14.43;99.27;97371.72;5031560;28;20611;-87
2022/10/15 05:29:48;;;;;;;5.85;3.38;;;;;;;14.40;98.87;97368.78;5026697;28;20082;-90
2022/10/15 05:32:18;;;;;;;2.83;2.38;;;;;;;14.36;98.61;97365.81;5014614;28;20545;-91
2022/10/15 05:35:11;;;;;;;1.80;1.70;;;;;;;14.39;98.82;97378.53;5060660;28;20029;-91
2022/10/15 05:37:46;;;;;;;3.33;3.03;;;;;;;14.46;98.96;97383.66;5027518;28;20029;-86
2022/10/15 05:40:14;;;;;;;4.75;3.88;;;;;;;14.38;98.89;97373.50;5030416;28;20073;-88
2022/10/15 05:42:42;;;;;;;4.60;4.20;;;;;;;14.56;98.78;97394.38;5030166;28;20104;-86
2022/10/15 05:45:10;;;;;;;3.08;2.78;;;;;;;14.45;98.73;97382.03;5054882;28;20140;-87
2022/10/15 05:47:38;;;;;;;4.05;2.58;;;;;;;14.49;98.74;97388.47;5030337;28;20517;-91
2022/10/15 05:50:11;;;;;;;5.80;5.30;;;;;;;14.42;98.92;97379.88;5032782;28;20060;-89
2022/10/15 05:52:39;;;;;;;4.35;3.60;;;;;;;14.44;99.22;97385.72;5033911;28;20268;-91
2022/10/15 05:55:17;;;;;;;4.63;4.22;;;;;;;14.50;98.93;97390.06;5031868;28;20033;-92
2022/10/15 05:58:00;;;;;;;4.50;4.10;;;;;;;14.51;99.13;97394.28;5033112;28;20125;-91
2022/10/15 06:00:26;;;;;;;4.45;2.75;;;;;;;14.50;98.85;97384.78;5016917;28;20073;-90
2022/10/15 06:02:53;;;;;;;3.13;2.13;;;;;;;14.59;98.84;97408.94;5033012;28;20128;-89
2022/10/15 06:05:25;;;;;;;2.67;1.95;;;;;;;14.55;98.96;97398.03;5033806;28;20479;-90
2022/10/15 06:07:53;;;;;;;;;;;;;;;14.69;98.95;97415.16;5018562;28;20036;-90
2022/10/15 06:10:21;;;;;;;1.98;1.77;;;;;;;14.57;98.51;97395.16;5032855;28;19909;-91
2022/10/15 06:13:04;;;;;;;4.13;2.38;;;;;;;14.67;98.30;97401.38;5031614;28;20033;-89
2022/10/15 06:15:40;;;;;;;3.42;1.83;;;;;;;14.76;98.00;97409.72;5033946;28;20044;-91
2022/10/15 06:18:16;;;;;;;4.95;1.80;;;;;;;14.76;98.02;97414.19;5014106;28;20060;-90
2022/10/15 06:21:00;;;;;;;2.88;1.65;;;;;;;14.56;97.89;97402.28;5034350;28;20030;-90
2022/10/15 06:23:26;;;;;;;4.45;1.80;;;;;;;14.61;98.23;97410.28;5032517;28;20407;-92
2022/10/15 06:25:55;;;;;;;3.00;2.00;;;;;;;14.73;98.43;97426.03;5033358;28;20212;-91
2022/10/15 06:28:34;;;;;;;2.33;2.00;;;;;;;14.71;98.00;97422.84;5032404;28;20112;-92
2022/10/15 06:31:17;;;;;;;2.85;1.77;;;;;;;14.73;97.95;97426.03;5048036;28;20021;-91
2022/10/15 06:33:55;;;;;;;2.03;1.83;;;;;;;14.78;97.78;97430.56;5027942;28;20029;-91
2022/10/15 06:36:25;;;;;;;3.63;2.20;;;;;;;14.83;97.87;97447.28;5032899;28;20033;-92
2022/10/15 06:38:54;;;;;;;3.08;1.98;;;;;;;14.90;97.83;97452.41;5027331;28;20037;-93
2022/10/15 06:41:31;;;;;;;2.17;1.80;;;;;;;14.85;97.51;97445.19;5029003;28;20033;-92
2022/10/15 06:43:56;;;;;;;2.53;1.90;;;;;;;14.90;97.56;97447.91;5025674;28;20064;-91
2022/10/15 06:46:27;;;;;;;1.70;1.60;;;;;;;15.04;97.77;97464.19;5030873;28;20037;-93
2022/10/15 06:49:26;;;;;;;;;;;;;;;;;;;;;
2022/10/15 06:52:24;;;;;;;;;;;;;;;;;;;;;
2022/10/15 06:54:55;;;;;;;3.40;2.58;;;;;;;15.21;96.96;97480.81;5034431;28;20029;-92
2022/10/15 06:57:38;;;;;;;;;;;;;;;;;;;;;
2022/10/15 07:00:16;;;;;;;2.45;2.03;;;;;;;15.07;96.85;97469.00;5066310;28;20442;-90
2022/10/15 07:02:52;;;;;;;;;;;;;;;;;;;;;
2022/10/15 07:05:23;;;;;;;2.13;1.90;;;;;;;15.25;96.70;97479.28;5033513;28;20037;-90
2022/10/15 07:08:06;;;;;;;;;;;;;;;;;;;;;
2022/10/15 07:13:50;;;;;;;;;;;;;;;;;;;;;
2022/10/15 07:16:18;;;;;;;3.78;2.53;;;;;;;15.33;95.66;97479.91;5033805;28;20067;-91
2022/10/15 07:18:47;;;;;;;3.47;2.10;;;;;;;15.34;95.33;97478.88;5034993;28;20064;-93
2022/10/15 07:21:25;;;;;;;;;;;;;;;;;;;;;
2022/10/15 07:24:11;;;;;;;4.57;2.35;;;;;;;15.43;95.70;97498.56;5039067;28;20029;-93
2022/10/15 07:26:48;;;;;;;3.20;2.30;;;;;;;15.38;95.54;97488.69;5060020;28;20037;-93
2022/10/15 07:29:28;;;;;;;3.05;2.15;;;;;;;15.50;95.73;97507.09;5018022;28;20561;-93
2022/10/15 07:32:07;;;;;;;4.05;2.72;;;;;;;15.59;95.70;97507.44;5020116;28;20064;-93
2022/10/15 07:34:36;;;;;;;2.72;2.50;;;;;;;15.59;95.46;97489.75;5015040;28;20037;-93
2022/10/15 07:37:15;;;;;;;4.05;2.40;;;;;;;15.71;95.20;97510.78;5058306;28;20033;-94
2022/10/15 07:39:46;;;;;;;4.20;2.35;;;;;;;15.71;95.55;97510.78;5017382;28;20034;-91
2022/10/15 07:42:12;;;;;;;2.85;2.40;;;;;;;15.84;94.92;97520.22;5016520;28;20022;-92
2022/10/15 07:44:39;;;;;;;2.33;2.00;;;;;;;15.79;94.61;97491.88;5003027;28;20233;-92
2022/10/15 07:47:11;;;;;;;2.95;2.17;;;;;;;15.84;94.69;97504.38;5018608;28;20109;-92
2022/10/15 07:50:04;;;;;;;4.13;2.30;;;;;;;15.90;93.97;97508.66;5022222;28;20044;-93
2022/10/15 07:53:08;;;;;;;;;;;;;;;;;;;;;
2022/10/15 07:56:06;;;;;;;2.17;1.80;;;;;;;16.01;93.86;97520.91;5022200;28;20030;-93
2022/10/15 07:59:01;;;;;;;3.35;2.22;;;;;;;16.17;93.76;97538.56;5028739;28;20034;-94
2022/10/15 08:01:28;;;;;;;2.30;2.10;;;;;;;16.08;93.81;97532.13;5039368;28;20045;-93
2022/10/15 08:04:35;;;;;;;2.33;2.00;;;;;;;16.12;93.79;97530.56;5040988;28;20063;-94
2022/10/15 08:07:30;;;;;;;4.43;2.25;;;;;;;16.17;93.64;97543.84;5048426;28;20045;-93
2022/10/15 08:10:33;;;;;;;2.88;2.00;;;;;;;16.15;93.79;97548.59;4995576;28;20133;-94
2022/10/15 08:13:32;;;;;;;2.58;2.03;;;;;;;16.31;94.03;97552.19;4999264;28;20037;-94
2022/10/15 08:16:50;;;;;;;;;;;;;;;;;;;;;
2022/10/15 08:19:24;;;;;;;2.80;2.38;;;;;;;16.50;92.74;97558.75;4996429;28;20458;-94
2022/10/15 08:22:15;;;;;;;2.85;2.28;;;;;;;16.55;93.11;97550.88;4996620;28;20033;-93
2022/10/15 08:24:48;;;;;;;3.22;2.25;;;;;;;16.54;92.91;97559.03;5013276;28;20038;-94
2022/10/15 08:27:16;;;;;;;4.22;2.30;;;;;;;16.58;92.97;97553.00;4995509;28;20030;-93
2022/10/15 08:29:52;;;;;;;2.38;2.10;;;;;;;16.55;92.50;97564.09;5013650;28;20022;-94
2022/10/15 08:32:20;;;;;;;9.10;2.25;;;;;;;16.63;92.79;97567.34;5014579;28;20022;-93
2022/10/15 08:34:54;;;;;;;4.43;2.05;;;;;;;16.52;92.31;97563.78;5015221;28;20454;-94
2022/10/15 08:37:35;;;;;;;2.70;2.10;;;;;;;16.57;93.17;97571.78;4998537;28;20037;-93
2022/10/15 08:40:24;;;;;;;2.47;1.83;;;;;;;16.62;93.10;97574.47;5028047;28;20575;-92
2022/10/15 08:43:41;;;;;;;2.60;2.00;;;;;;;16.56;93.51;97576.28;5016241;28;20080;-94
2022/10/15 08:46:58;;;;;;;;;;;;;;;;;;;;;
2022/10/15 08:49:55;;;;;;;2.55;1.90;;;;;;;16.63;93.41;97597.25;5015684;28;20574;-95
2022/10/15 08:52:58;;;;;;;2.97;2.00;;;;;;;16.56;93.70;97596.66;5017795;28;20030;-94
2022/10/15 08:55:49;;;;;;;3.38;2.40;;;;;;;16.73;93.88;97612.44;5015613;28;20030;-94
2022/10/15 08:59:16;;;;;;;2.45;2.25;;;;;;;16.63;93.58;97589.31;5018719;28;20136;-94
2022/10/15 09:02:10;;;;;;;2.15;1.95;;;;;;;16.66;93.68;97591.44;5003679;28;20038;-94
2022/10/15 09:05:15;;;;;;;3.85;1.77;;;;;;;16.70;93.26;97589.94;5023663;28;20506;-96
2022/10/15 09:08:21;;;;;;;;;;;;;;;;;;;;;
2022/10/15 09:12:01;;;;;;;1.90;1.80;;;;;;;17.02;92.35;97628.88;5031953;28;20057;-94
2022/10/15 09:14:57;;;;;;;;;;;;;;;;;;;;;
2022/10/15 09:17:36;;;;;;;;;;;;;;;;;;;;;
2022/10/15 09:20:13;;;;;;;2.20;2.00;;;;;;;16.77;94.16;97609.06;5025032;28;20129;-96
2022/10/15 09:22:47;;;;;;;4.50;1.70;;;;;;;16.77;93.59;97613.56;5022760;28;20029;-96
2022/10/15 09:26:16;;;;;;;5.53;1.75;;;;;;;16.77;93.17;97624.16;5018715;28;20513;-95
2022/10/15 09:29:27;;;;;;;;;;;;;;;;;;;;;
2022/10/15 09:32:30;;;;;;;1.50;1.40;;;;;;;17.14;91.20;97613.59;5021083;28;20482;-95
2022/10/15 09:35:40;;;;;;;;;;;;;;;;;;;;;
2022/10/15 09:42:55;;;;;;;1.67;1.20;;;;;;;17.26;86.40;97637.28;5019552;28;20053;-91
2022/10/15 09:45:35;;;;;;;;;;;;;;;;;;;;;
2022/10/15 09:48:15;;;;;;;1.23;1.13;;;;;;;17.23;86.41;97662.44;5019372;28;20068;-93
2022/10/15 09:50:56;;;;;;;2.72;1.02;;;;;;;17.11;86.99;97661.81;5045098;28;20026;-95
2022/10/15 09:53:59;;;;;;;0.90;0.90;;;;;;;17.11;87.15;97656.53;5002372;28;20037;-94
2022/10/15 09:56:38;;;;;;;1.73;1.60;;;;;;;17.09;89.43;97671.84;5016512;28;20030;-94
2022/10/15 09:59:04;;;;;;;1.27;1.20;;;;;;;17.18;88.77;97662.41;5014815;28;20033;-94
2022/10/15 10:05:37;;;;;;;1.83;1.20;;;;;;;17.15;88.90;97644.34;5001563;28;20042;-94
2022/10/15 10:08:22;;;;;;;1.30;1.20;;;;;;;17.29;87.80;97668.59;5015682;28;20030;-94
2022/10/15 10:11:00;;;;;;;1.40;1.30;;;;;;;17.21;88.25;97650.50;5031486;28;20072;-96
2022/10/15 10:13:45;;;;;;;1.00;1.00;;;;;;;17.15;86.18;97668.19;5016923;28;20072;-96
2022/10/15 10:16:15;;;;;;;3.95;1.50;;;;;;;17.23;89.10;97674.91;5019224;28;20037;-96
2022/10/15 10:18:49;;;;;;;1.10;1.10;;;;;;;16.98;87.51;97659.59;5017188;28;20030;-94
2022/10/15 10:21:45;;;;;;;1.23;1.17;;;;;;;17.10;88.09;97673.47;5002919;28;20053;-94
2022/10/15 10:24:49;;;;;;;2.35;1.63;;;;;;;17.22;86.92;97674.09;4999587;28;20191;-94
2022/10/15 10:27:29;;;;;;;1.67;1.40;;;;;;;17.36;87.76;97690.38;5006225;28;20488;-96
2022/10/15 10:30:04;;;;;;;2.97;1.85;;;;;;;17.13;87.73;97675.59;5017690;28;20026;-96
2022/10/15 10:32:42;;;;;;;1.73;1.35;;;;;;;17.06;87.14;97675.03;5013343;28;20030;-96
2022/10/15 10:35:32;;;;;;;2.47;1.70;;;;;;;16.98;88.52;97664.88;5000070;28;20054;-95
2022/10/15 10:38:40;;;;;;;1.60;1.50;;;;;;;17.05;88.95;97673.44;5029399;28;20034;-96
2022/10/15 10:41:12;;;;;;;1.40;1.30;;;;;;;17.14;86.92;97679.84;5009323;28;20271;-95
2022/10/15 10:44:03;;;;;;;;;;;;;;;;;;;;;
2022/10/15 10:46:42;;;;;;;2.60;1.45;;;;;;;17.50;87.45;97677.50;5026311;28;20112;-96
2022/10/15 10:49:08;;;;;;;1.40;1.30;;;;;;;17.68;85.30;97693.00;5045292;28;20038;-96
2022/10/15 10:51:52;;;;;;;2.10;1.17;;;;;;;17.62;83.30;97688.72;5060242;28;20030;-96
2022/10/15 10:54:25;;;;;;;3.80;1.42;;;;;;;17.69;86.10;97685.84;5053632;28;20507;-96
2022/10/15 10:57:28;;;;;;;;;;;;;;;;;;;;;
2022/10/15 10:59:55;;;;;;;1.30;1.20;;;;;;;17.42;85.10;97673.47;5036373;28;20038;-94
2022/10/15 11:02:47;;;;;;;1.30;1.20;;;;;;;17.66;84.36;97697.78;5025225;28;20029;-96
2022/10/15 11:05:21;;;;;;;1.35;1.15;;;;;;;17.70;85.13;97696.22;5058115;28;20038;-96
2022/10/15 11:08:23;;;;;;;3.53;0.93;;;;;;;17.53;81.83;97677.00;5021461;28;20061;-96
2022/10/15 11:11:27;;;;;;;1.20;1.10;;;;;;;17.63;83.86;97687.66;5024518;28;20076;-96
2022/10/15 11:14:02;;;;;;;4.57;1.10;;;;;;;17.84;84.32;97697.38;5007938;28;20034;-96
2022/10/15 11:17:16;;;;;;;2.00;1.25;;;;;;;17.65;84.37;97677.63;5011558;28;20497;-96
2022/10/15 11:20:27;;;;;;;0.90;0.90;;;;;;;17.77;83.14;97690.72;5021112;28;20033;-96
2022/10/15 11:23:07;;;;;;;1.10;1.00;;;;;;;17.97;81.72;97695.34;5003118;28;20037;-96
2022/10/15 11:26:23;;;;;;;0.95;0.95;;;;;;;18.02;82.33;97684.75;5017224;28;20044;-96
2022/10/15 11:29:42;;;;;;;0.85;0.85;;;;;;;18.18;82.84;97702.38;5021781;28;20063;-96
2022/10/15 11:32:47;;;;;;;1.33;1.23;;;;;;;18.17;81.86;97701.56;5005455;28;20025;-96
2022/10/15 11:35:46;;;;;;;1.33;0.95;;;;;;;17.89;82.14;97693.97;5026630;28;20034;-92
2022/10/15 11:38:47;;;;;;;1.10;0.90;;;;;;;17.86;80.22;97700.56;5010549;28;20037;-95
2022/10/15 11:42:02;;;;;;;0.80;0.80;;;;;;;17.80;78.89;97691.00;5014574;28;20457;-94
2022/10/15 11:45:15;;;;;;;1.20;1.10;;;;;;;18.00;79.87;97700.16;5024296;28;20073;-94
2022/10/15 11:48:00;;;;;;;1.35;1.00;;;;;;;17.94;79.63;97695.88;5045552;28;20506;-93
2022/10/15 11:50:40;;;;;;;2.50;1.30;;;;;;;17.91;81.06;97681.25;5045390;28;20037;-94
2022/10/15 11:54:08;;;;;;;1.00;1.00;;;;;;;17.96;79.80;97701.72;5013806;28;20555;-96
2022/10/15 11:56:48;;;;;;;1.10;1.00;;;;;;;18.00;78.36;97697.50;4979823;28;20382;-95
2022/10/15 11:59:34;;;;;;;1.17;0.90;;;;;;;18.15;76.02;97686.94;5009080;28;20092;-92
2022/10/15 12:02:28;;;;;;;0.80;0.80;;;;;;;18.26;77.51;97701.88;5032958;28;20467;-90
2022/10/15 12:05:17;;;;;;;1.25;1.00;;;;;;;18.12;76.79;97688.28;4991870;28;20038;-90
2022/10/15 12:08:17;;;;;;;1.05;1.00;;;;;;;18.05;77.90;97681.56;5006063;28;20027;-96
2022/10/15 12:11:25;;;;;;;0.85;0.85;;;;;;;17.99;77.91;97685.25;5007895;28;20076;-92
2022/10/15 12:14:35;;;;;;;3.00;0.80;;;;;;;17.95;77.81;97687.66;5011076;28;20103;-94
2022/10/15 12:17:23;;;;;;;1.17;0.90;;;;;;;17.75;77.24;97676.88;5046128;28;20510;-92
2022/10/15 12:20:13;;;;;;;0.70;0.70;;;;;;;17.77;77.71;97667.66;5012365;28;20038;-96
2022/10/15 12:22:49;;;;;;;0.75;0.75;;;;;;;17.92;77.80;97691.59;5013803;28;20037;-95
2022/10/15 12:25:36;;;;;;;1.00;0.90;;;;;;;17.95;76.23;97682.34;5026783;28;20109;-94
2022/10/15 12:28:17;;;;;;;0.70;0.70;;;;;;;17.89;76.05;97659.50;4994289;28;20057;-96
2022/10/15 12:31:02;;;;;;;0.80;0.80;;;;;;;18.12;77.07;97675.00;5015068;28;20030;-95
2022/10/15 12:33:38;;;;;;;1.52;0.90;;;;;;;18.08;77.78;97681.06;5027173;28;20034;-95
2022/10/15 12:36:29;;;;;;;0.98;0.90;;;;;;;17.98;77.42;97673.06;5008225;28;20052;-90
2022/10/15 12:39:23;;;;;;;0.98;0.95;;;;;;;17.98;77.00;97670.41;5016178;28;20033;-96
2022/10/15 12:42:06;;;;;;;1.00;1.00;;;;;;;18.21;76.94;97680.59;5017612;28;20038;-96
2022/10/15 12:44:48;;;;;;;;;;;;;;;;;;;;;
2022/10/15 12:48:06;;;;;;;0.95;0.90;;;;;;;18.45;77.66;97660.53;5014200;28;20105;-92
2022/10/15 12:50:36;;;;;;;0.90;0.90;;;;;;;18.40;77.91;97646.44;5019115;28;20471;-90
2022/10/15 12:53:35;;;;;;;2.15;0.80;;;;;;;18.36;77.07;97667.41;5026557;28;20561;-91
2022/10/15 12:56:20;;;;;;;1.33;0.90;;;;;;;18.08;78.38;97659.84;4992960;28;20740;-91
2022/10/15 12:59:11;;;;;;;0.95;0.90;;;;;;;17.96;78.69;97656.59;5040707;28;20037;-91
2022/10/15 13:01:50;;;;;;;3.67;0.85;;;;;;;18.01;79.94;97670.69;4997763;28;20056;-92
2022/10/15 13:04:23;;;;;;;1.08;0.90;;;;;;;18.18;83.28;97659.91;5047764;28;20105;-93
2022/10/15 13:06:55;;;;;;;2.03;1.10;;;;;;;18.38;83.41;97652.00;5015445;28;20156;-93
2022/10/15 13:09:32;;;;;;;0.85;0.80;;;;;;;18.35;81.79;97657.03;5016044;28;20120;-94
2022/10/15 13:12:01;;;;;;;1.00;1.00;;;;;;;18.25;82.58;97660.47;5031100;28;20103;-91
2022/10/15 13:14:49;;;;;;;1.40;1.20;;;;;;;18.05;84.10;97636.47;5018693;28;20109;-94
2022/10/15 13:17:29;;;;;;;1.40;1.17;;;;;;;17.89;86.39;97652.31;5021481;28;20041;-90
2022/10/15 13:20:06;;;;;;;0.80;0.80;;;;;;;17.80;83.67;97658.38;5024900;28;20034;-93
2022/10/15 13:22:39;;;;;;;0.52;0.52;;;;;;;17.63;81.47;97672.56;5015543;28;20030;-91